sensor_id;sensor_type;location;lat;lon;timestamp;P1;durP1;ratioP1;P2;durP2;ratioP2
42704;SDS011;28342;42.594;23.414;2022-08-21T00:01:45;15.93;;;10.50;;
42704;SDS011;28342;42.594;23.414;2022-08-21T00:04:11;22.67;;;12.55;;
42704;SDS011;28342;42.594;23.414;2022-08-21T00:06:37;23.30;;;12.63;;
42704;SDS011;28342;42.594;23.414;2022-08-21T00:09:03;16.15;;;11.55;;
42704;SDS011;28342;42.594;23.414;2022-08-21T00:11:30;17.67;;;12.00;;
42704;SDS011;28342;42.594;23.414;2022-08-21T00:13:56;15.65;;;10.13;;
42704;SDS011;28342;42.594;23.414;2022-08-21T00:16:21;15.18;;;9.93;;
42704;SDS011;28342;42.594;23.414;2022-08-21T00:18:48;18.90;;;10.20;;
42704;SDS011;28342;42.594;23.414;2022-08-21T00:21:14;18.85;;;9.60;;
42704;SDS011;28342;42.594;23.414;2022-08-21T00:23:41;15.55;;;10.32;;
42704;SDS011;28342;42.594;23.414;2022-08-21T00:26:06;13.73;;;9.48;;
42704;SDS011;28342;42.594;23.414;2022-08-21T00:28:32;19.23;;;9.52;;
42704;SDS011;28342;42.594;23.414;2022-08-21T00:30:58;12.35;;;8.93;;
42704;SDS011;28342;42.594;23.414;2022-08-21T00:33:24;16.83;;;10.15;;
42704;SDS011;28342;42.594;23.414;2022-08-21T00:35:51;19.25;;;10.65;;
42704;SDS011;28342;42.594;23.414;2022-08-21T00:38:17;12.60;;;9.85;;
42704;SDS011;28342;42.594;23.414;2022-08-21T00:40:47;15.48;;;8.88;;
42704;SDS011;28342;42.594;23.414;2022-08-21T00:43:17;19.50;;;9.32;;
42704;SDS011;28342;42.594;23.414;2022-08-21T00:45:45;19.27;;;9.10;;
42704;SDS011;28342;42.594;23.414;2022-08-21T00:48:11;15.55;;;8.60;;
42704;SDS011;28342;42.594;23.414;2022-08-21T00:50:38;14.75;;;9.68;;
42704;SDS011;28342;42.594;23.414;2022-08-21T00:53:09;18.17;;;9.07;;
42704;SDS011;28342;42.594;23.414;2022-08-21T00:55:36;17.90;;;9.55;;
42704;SDS011;28342;42.594;23.414;2022-08-21T00:58:03;14.23;;;9.30;;
42704;SDS011;28342;42.594;23.414;2022-08-21T01:00:33;16.63;;;9.60;;
42704;SDS011;28342;42.594;23.414;2022-08-21T01:03:05;18.75;;;9.98;;
42704;SDS011;28342;42.594;23.414;2022-08-21T01:05:34;16.08;;;9.48;;
42704;SDS011;28342;42.594;23.414;2022-08-21T01:08:00;16.50;;;8.65;;
42704;SDS011;28342;42.594;23.414;2022-08-21T01:10:26;22.35;;;10.27;;
42704;SDS011;28342;42.594;23.414;2022-08-21T01:12:55;20.15;;;10.35;;
42704;SDS011;28342;42.594;23.414;2022-08-21T01:15:26;17.42;;;9.88;;
42704;SDS011;28342;42.594;23.414;2022-08-21T01:17:58;19.13;;;9.27;;
42704;SDS011;28342;42.594;23.414;2022-08-21T01:20:24;16.02;;;9.30;;
42704;SDS011;28342;42.594;23.414;2022-08-21T01:22:49;15.65;;;8.98;;
42704;SDS011;28342;42.594;23.414;2022-08-21T01:25:18;17.33;;;8.75;;
42704;SDS011;28342;42.594;23.414;2022-08-21T01:27:46;13.75;;;8.65;;
42704;SDS011;28342;42.594;23.414;2022-08-21T01:30:13;15.77;;;9.30;;
42704;SDS011;28342;42.594;23.414;2022-08-21T01:32:43;14.88;;;9.68;;
42704;SDS011;28342;42.594;23.414;2022-08-21T01:35:08;21.33;;;9.52;;
42704;SDS011;28342;42.594;23.414;2022-08-21T01:37:34;22.17;;;10.77;;
42704;SDS011;28342;42.594;23.414;2022-08-21T01:40:00;17.25;;;10.38;;
42704;SDS011;28342;42.594;23.414;2022-08-21T01:42:26;16.73;;;9.80;;
42704;SDS011;28342;42.594;23.414;2022-08-21T01:44:51;15.88;;;11.52;;
42704;SDS011;28342;42.594;23.414;2022-08-21T01:47:17;22.00;;;11.80;;
42704;SDS011;28342;42.594;23.414;2022-08-21T01:49:43;20.20;;;10.65;;
42704;SDS011;28342;42.594;23.414;2022-08-21T01:52:09;15.30;;;8.93;;
42704;SDS011;28342;42.594;23.414;2022-08-21T01:54:36;19.08;;;8.90;;
42704;SDS011;28342;42.594;23.414;2022-08-21T01:57:03;18.00;;;8.45;;
42704;SDS011;28342;42.594;23.414;2022-08-21T01:59:30;14.52;;;8.10;;
42704;SDS011;28342;42.594;23.414;2022-08-21T02:01:55;15.10;;;8.88;;
42704;SDS011;28342;42.594;23.414;2022-08-21T02:04:21;20.38;;;8.60;;
42704;SDS011;28342;42.594;23.414;2022-08-21T02:06:47;15.45;;;8.05;;
42704;SDS011;28342;42.594;23.414;2022-08-21T02:09:13;14.57;;;7.95;;
42704;SDS011;28342;42.594;23.414;2022-08-21T02:11:40;11.88;;;7.72;;
42704;SDS011;28342;42.594;23.414;2022-08-21T02:14:07;13.00;;;6.68;;
42704;SDS011;28342;42.594;23.414;2022-08-21T02:16:34;14.80;;;7.50;;
42704;SDS011;28342;42.594;23.414;2022-08-21T02:19:00;17.35;;;6.22;;
42704;SDS011;28342;42.594;23.414;2022-08-21T02:21:26;12.10;;;6.22;;
42704;SDS011;28342;42.594;23.414;2022-08-21T02:23:51;12.80;;;5.63;;
42704;SDS011;28342;42.594;23.414;2022-08-21T02:26:17;13.05;;;5.13;;
42704;SDS011;28342;42.594;23.414;2022-08-21T02:28:42;15.85;;;5.45;;
42704;SDS011;28342;42.594;23.414;2022-08-21T02:31:08;15.15;;;5.53;;
42704;SDS011;28342;42.594;23.414;2022-08-21T02:33:33;9.82;;;5.38;;
42704;SDS011;28342;42.594;23.414;2022-08-21T02:35:59;9.30;;;5.85;;
42704;SDS011;28342;42.594;23.414;2022-08-21T02:38:26;8.85;;;6.88;;
42704;SDS011;28342;42.594;23.414;2022-08-21T02:40:54;11.45;;;6.07;;
42704;SDS011;28342;42.594;23.414;2022-08-21T02:43:21;16.33;;;6.18;;
42704;SDS011;28342;42.594;23.414;2022-08-21T02:45:49;18.63;;;6.03;;
42704;SDS011;28342;42.594;23.414;2022-08-21T02:48:17;11.73;;;5.53;;
42704;SDS011;28342;42.594;23.414;2022-08-21T02:53:40;14.73;;;5.35;;
42704;SDS011;28342;42.594;23.414;2022-08-21T02:56:07;9.77;;;5.03;;
42704;SDS011;28342;42.594;23.414;2022-08-21T02:58:39;11.30;;;5.15;;
42704;SDS011;28342;42.594;23.414;2022-08-21T03:01:08;13.02;;;6.18;;
42704;SDS011;28342;42.594;23.414;2022-08-21T03:03:34;12.20;;;5.70;;
42704;SDS011;28342;42.594;23.414;2022-08-21T03:06:00;11.48;;;5.03;;
42704;SDS011;28342;42.594;23.414;2022-08-21T03:08:26;13.73;;;5.38;;
42704;SDS011;28342;42.594;23.414;2022-08-21T03:10:52;11.88;;;5.85;;
42704;SDS011;28342;42.594;23.414;2022-08-21T03:13:18;12.25;;;6.00;;
42704;SDS011;28342;42.594;23.414;2022-08-21T03:15:45;13.02;;;5.88;;
42704;SDS011;28342;42.594;23.414;2022-08-21T03:18:11;11.48;;;5.85;;
42704;SDS011;28342;42.594;23.414;2022-08-21T03:20:38;13.75;;;5.82;;
42704;SDS011;28342;42.594;23.414;2022-08-21T03:23:05;14.60;;;5.40;;
42704;SDS011;28342;42.594;23.414;2022-08-21T03:25:32;13.40;;;5.28;;
42704;SDS011;28342;42.594;23.414;2022-08-21T03:27:58;11.85;;;5.00;;
42704;SDS011;28342;42.594;23.414;2022-08-21T03:30:28;11.25;;;5.10;;
42704;SDS011;28342;42.594;23.414;2022-08-21T03:32:56;11.27;;;5.20;;
42704;SDS011;28342;42.594;23.414;2022-08-21T03:35:23;11.73;;;5.85;;
42704;SDS011;28342;42.594;23.414;2022-08-21T03:37:48;12.65;;;4.50;;
42704;SDS011;28342;42.594;23.414;2022-08-21T03:40:14;12.25;;;5.43;;
42704;SDS011;28342;42.594;23.414;2022-08-21T03:42:42;17.00;;;5.47;;
42704;SDS011;28342;42.594;23.414;2022-08-21T03:45:08;12.73;;;5.70;;
42704;SDS011;28342;42.594;23.414;2022-08-21T03:47:34;13.00;;;6.03;;
42704;SDS011;28342;42.594;23.414;2022-08-21T03:50:01;9.85;;;5.75;;
42704;SDS011;28342;42.594;23.414;2022-08-21T03:52:28;11.32;;;5.13;;
42704;SDS011;28342;42.594;23.414;2022-08-21T03:54:53;13.52;;;4.60;;
42704;SDS011;28342;42.594;23.414;2022-08-21T03:57:19;17.55;;;5.40;;
42704;SDS011;28342;42.594;23.414;2022-08-21T03:59:44;8.10;;;5.53;;
42704;SDS011;28342;42.594;23.414;2022-08-21T04:02:10;9.88;;;5.85;;
42704;SDS011;28342;42.594;23.414;2022-08-21T04:04:38;14.75;;;6.07;;
42704;SDS011;28342;42.594;23.414;2022-08-21T04:07:06;8.38;;;4.60;;
42704;SDS011;28342;42.594;23.414;2022-08-21T04:09:31;10.65;;;5.45;;
42704;SDS011;28342;42.594;23.414;2022-08-21T04:11:57;9.35;;;4.95;;
42704;SDS011;28342;42.594;23.414;2022-08-21T04:14:24;9.38;;;4.78;;
42704;SDS011;28342;42.594;23.414;2022-08-21T04:16:50;12.30;;;5.07;;
42704;SDS011;28342;42.594;23.414;2022-08-21T04:19:15;13.63;;;5.63;;
42704;SDS011;28342;42.594;23.414;2022-08-21T04:21:40;13.82;;;5.38;;
42704;SDS011;28342;42.594;23.414;2022-08-21T04:24:08;15.35;;;5.03;;
42704;SDS011;28342;42.594;23.414;2022-08-21T04:26:35;8.55;;;5.18;;
42704;SDS011;28342;42.594;23.414;2022-08-21T04:29:01;14.27;;;5.03;;
42704;SDS011;28342;42.594;23.414;2022-08-21T04:31:27;23.10;;;5.55;;
42704;SDS011;28342;42.594;23.414;2022-08-21T04:33:53;12.95;;;5.20;;
42704;SDS011;28342;42.594;23.414;2022-08-21T04:36:19;13.02;;;5.97;;
42704;SDS011;28342;42.594;23.414;2022-08-21T04:38:44;18.17;;;6.05;;
42704;SDS011;28342;42.594;23.414;2022-08-21T04:41:10;11.18;;;5.03;;
42704;SDS011;28342;42.594;23.414;2022-08-21T04:43:36;12.02;;;4.88;;
42704;SDS011;28342;42.594;23.414;2022-08-21T04:46:02;12.10;;;5.68;;
42704;SDS011;28342;42.594;23.414;2022-08-21T04:48:28;11.52;;;6.00;;
42704;SDS011;28342;42.594;23.414;2022-08-21T04:53:43;13.63;;;5.47;;
42704;SDS011;28342;42.594;23.414;2022-08-21T04:56:44;11.68;;;4.88;;
42704;SDS011;28342;42.594;23.414;2022-08-21T04:59:26;12.05;;;4.97;;
42704;SDS011;28342;42.594;23.414;2022-08-21T05:01:55;9.50;;;4.97;;
42704;SDS011;28342;42.594;23.414;2022-08-21T05:04:23;9.85;;;5.25;;
42704;SDS011;28342;42.594;23.414;2022-08-21T05:06:51;7.70;;;5.03;;
42704;SDS011;28342;42.594;23.414;2022-08-21T05:09:22;11.05;;;4.38;;
42704;SDS011;28342;42.594;23.414;2022-08-21T05:11:49;7.28;;;4.63;;
42704;SDS011;28342;42.594;23.414;2022-08-21T05:14:16;4.75;;;4.18;;
42704;SDS011;28342;42.594;23.414;2022-08-21T05:16:42;14.52;;;5.05;;
42704;SDS011;28342;42.594;23.414;2022-08-21T05:19:08;8.35;;;4.60;;
42704;SDS011;28342;42.594;23.414;2022-08-21T05:21:35;10.05;;;4.70;;
42704;SDS011;28342;42.594;23.414;2022-08-21T05:24:02;7.80;;;5.35;;
42704;SDS011;28342;42.594;23.414;2022-08-21T05:26:28;9.38;;;4.63;;
42704;SDS011;28342;42.594;23.414;2022-08-21T05:28:53;9.57;;;4.72;;
42704;SDS011;28342;42.594;23.414;2022-08-21T05:31:18;12.38;;;4.50;;
42704;SDS011;28342;42.594;23.414;2022-08-21T05:33:44;10.60;;;4.45;;
42704;SDS011;28342;42.594;23.414;2022-08-21T05:36:09;8.65;;;4.70;;
42704;SDS011;28342;42.594;23.414;2022-08-21T05:38:34;10.55;;;4.75;;
42704;SDS011;28342;42.594;23.414;2022-08-21T05:41:00;6.90;;;4.30;;
42704;SDS011;28342;42.594;23.414;2022-08-21T05:43:25;9.70;;;3.92;;
42704;SDS011;28342;42.594;23.414;2022-08-21T05:45:51;6.75;;;3.90;;
42704;SDS011;28342;42.594;23.414;2022-08-21T05:48:20;7.70;;;3.72;;
42704;SDS011;28342;42.594;23.414;2022-08-21T05:50:48;7.93;;;4.28;;
42704;SDS011;28342;42.594;23.414;2022-08-21T05:53:15;8.32;;;4.28;;
42704;SDS011;28342;42.594;23.414;2022-08-21T05:55:42;9.85;;;4.22;;
42704;SDS011;28342;42.594;23.414;2022-08-21T05:58:08;9.20;;;3.78;;
42704;SDS011;28342;42.594;23.414;2022-08-21T06:00:34;4.60;;;3.55;;
42704;SDS011;28342;42.594;23.414;2022-08-21T06:02:59;5.68;;;3.85;;
42704;SDS011;28342;42.594;23.414;2022-08-21T06:05:25;12.23;;;4.55;;
42704;SDS011;28342;42.594;23.414;2022-08-21T06:07:51;15.63;;;5.05;;
42704;SDS011;28342;42.594;23.414;2022-08-21T06:10:17;9.07;;;4.30;;
42704;SDS011;28342;42.594;23.414;2022-08-21T06:12:43;12.85;;;4.30;;
42704;SDS011;28342;42.594;23.414;2022-08-21T06:15:08;8.75;;;4.25;;
42704;SDS011;28342;42.594;23.414;2022-08-21T06:17:34;11.50;;;4.28;;
42704;SDS011;28342;42.594;23.414;2022-08-21T06:19:59;7.65;;;3.88;;
42704;SDS011;28342;42.594;23.414;2022-08-21T06:22:24;8.68;;;4.13;;
42704;SDS011;28342;42.594;23.414;2022-08-21T06:24:50;8.82;;;4.28;;
42704;SDS011;28342;42.594;23.414;2022-08-21T06:27:15;10.48;;;6.10;;
42704;SDS011;28342;42.594;23.414;2022-08-21T06:29:42;11.05;;;6.32;;
42704;SDS011;28342;42.594;23.414;2022-08-21T06:32:10;10.15;;;6.18;;
42704;SDS011;28342;42.594;23.414;2022-08-21T06:34:37;15.82;;;7.57;;
42704;SDS011;28342;42.594;23.414;2022-08-21T06:37:04;12.75;;;7.38;;
42704;SDS011;28342;42.594;23.414;2022-08-21T06:39:29;13.35;;;6.70;;
42704;SDS011;28342;42.594;23.414;2022-08-21T06:41:55;17.13;;;7.13;;
42704;SDS011;28342;42.594;23.414;2022-08-21T06:44:20;11.52;;;7.43;;
42704;SDS011;28342;42.594;23.414;2022-08-21T06:46:46;12.88;;;5.72;;
42704;SDS011;28342;42.594;23.414;2022-08-21T06:49:14;13.35;;;7.00;;
42704;SDS011;28342;42.594;23.414;2022-08-21T06:51:39;13.20;;;6.88;;
42704;SDS011;28342;42.594;23.414;2022-08-21T06:54:08;17.67;;;7.97;;
42704;SDS011;28342;42.594;23.414;2022-08-21T06:56:33;16.38;;;7.35;;
42704;SDS011;28342;42.594;23.414;2022-08-21T06:59:03;14.35;;;7.93;;
42704;SDS011;28342;42.594;23.414;2022-08-21T07:01:30;10.75;;;6.90;;
42704;SDS011;28342;42.594;23.414;2022-08-21T07:03:55;11.32;;;7.25;;
42704;SDS011;28342;42.594;23.414;2022-08-21T07:06:21;13.25;;;6.20;;
42704;SDS011;28342;42.594;23.414;2022-08-21T07:08:46;12.38;;;5.25;;
42704;SDS011;28342;42.594;23.414;2022-08-21T07:11:19;9.52;;;5.85;;
42704;SDS011;28342;42.594;23.414;2022-08-21T07:13:47;9.00;;;5.57;;
42704;SDS011;28342;42.594;23.414;2022-08-21T07:16:14;15.32;;;5.95;;
42704;SDS011;28342;42.594;23.414;2022-08-21T07:18:39;13.88;;;5.63;;
42704;SDS011;28342;42.594;23.414;2022-08-21T07:21:05;10.73;;;6.57;;
42704;SDS011;28342;42.594;23.414;2022-08-21T07:23:33;14.50;;;5.72;;
42704;SDS011;28342;42.594;23.414;2022-08-21T07:26:02;12.68;;;6.70;;
42704;SDS011;28342;42.594;23.414;2022-08-21T07:28:28;13.95;;;5.85;;
42704;SDS011;28342;42.594;23.414;2022-08-21T07:30:55;13.60;;;5.30;;
42704;SDS011;28342;42.594;23.414;2022-08-21T07:33:22;11.77;;;4.90;;
42704;SDS011;28342;42.594;23.414;2022-08-21T07:35:49;12.88;;;4.90;;
42704;SDS011;28342;42.594;23.414;2022-08-21T07:38:14;10.77;;;5.72;;
42704;SDS011;28342;42.594;23.414;2022-08-21T07:40:40;9.57;;;5.32;;
42704;SDS011;28342;42.594;23.414;2022-08-21T07:43:05;11.32;;;5.90;;
42704;SDS011;28342;42.594;23.414;2022-08-21T07:45:31;12.65;;;5.32;;
42704;SDS011;28342;42.594;23.414;2022-08-21T07:47:57;13.10;;;4.80;;
42704;SDS011;28342;42.594;23.414;2022-08-21T07:50:22;9.68;;;4.43;;
42704;SDS011;28342;42.594;23.414;2022-08-21T07:52:49;15.32;;;4.97;;
42704;SDS011;28342;42.594;23.414;2022-08-21T07:55:15;9.02;;;4.20;;
42704;SDS011;28342;42.594;23.414;2022-08-21T07:57:43;9.63;;;5.05;;
42704;SDS011;28342;42.594;23.414;2022-08-21T08:00:12;9.48;;;4.40;;
42704;SDS011;28342;42.594;23.414;2022-08-21T08:02:40;12.13;;;4.90;;
42704;SDS011;28342;42.594;23.414;2022-08-21T08:05:07;9.75;;;4.75;;
42704;SDS011;28342;42.594;23.414;2022-08-21T08:07:34;11.60;;;5.18;;
42704;SDS011;28342;42.594;23.414;2022-08-21T08:10:00;19.92;;;6.80;;
42704;SDS011;28342;42.594;23.414;2022-08-21T08:12:27;17.80;;;7.07;;
42704;SDS011;28342;42.594;23.414;2022-08-21T08:14:57;13.98;;;5.50;;
42704;SDS011;28342;42.594;23.414;2022-08-21T08:17:24;9.57;;;6.03;;
42704;SDS011;28342;42.594;23.414;2022-08-21T08:19:51;9.52;;;5.05;;
42704;SDS011;28342;42.594;23.414;2022-08-21T08:22:18;13.48;;;5.00;;
42704;SDS011;28342;42.594;23.414;2022-08-21T08:24:46;11.40;;;6.78;;
42704;SDS011;28342;42.594;23.414;2022-08-21T08:27:13;12.10;;;5.35;;
42704;SDS011;28342;42.594;23.414;2022-08-21T08:29:39;12.77;;;5.30;;
42704;SDS011;28342;42.594;23.414;2022-08-21T08:32:04;12.18;;;6.88;;
42704;SDS011;28342;42.594;23.414;2022-08-21T08:34:32;13.70;;;6.38;;
42704;SDS011;28342;42.594;23.414;2022-08-21T08:37:02;15.00;;;6.78;;
42704;SDS011;28342;42.594;23.414;2022-08-21T08:39:29;15.90;;;6.03;;
42704;SDS011;28342;42.594;23.414;2022-08-21T08:42:40;14.15;;;5.97;;
42704;SDS011;28342;42.594;23.414;2022-08-21T08:44:55;11.88;;;5.28;;
42704;SDS011;28342;42.594;23.414;2022-08-21T08:47:24;11.63;;;5.85;;
42704;SDS011;28342;42.594;23.414;2022-08-21T08:52:27;15.90;;;6.25;;
42704;SDS011;28342;42.594;23.414;2022-08-21T08:55:06;20.73;;;5.93;;
42704;SDS011;28342;42.594;23.414;2022-08-21T08:57:33;9.70;;;4.90;;
42704;SDS011;28342;42.594;23.414;2022-08-21T09:00:03;10.98;;;5.55;;
42704;SDS011;28342;42.594;23.414;2022-08-21T09:02:32;14.40;;;6.10;;
42704;SDS011;28342;42.594;23.414;2022-08-21T09:04:58;14.02;;;5.75;;
42704;SDS011;28342;42.594;23.414;2022-08-21T09:07:29;13.05;;;6.40;;
42704;SDS011;28342;42.594;23.414;2022-08-21T09:18:26;13.45;;;6.18;;
42704;SDS011;28342;42.594;23.414;2022-08-21T09:21:38;10.15;;;6.05;;
42704;SDS011;28342;42.594;23.414;2022-08-21T09:27:06;9.52;;;5.28;;
42704;SDS011;28342;42.594;23.414;2022-08-21T09:29:36;13.25;;;5.95;;
42704;SDS011;28342;42.594;23.414;2022-08-21T09:32:08;6.55;;;4.70;;
42704;SDS011;28342;42.594;23.414;2022-08-21T09:34:39;10.75;;;4.90;;
42704;SDS011;28342;42.594;23.414;2022-08-21T09:37:15;14.85;;;4.60;;
42704;SDS011;28342;42.594;23.414;2022-08-21T09:39:45;11.57;;;3.95;;
42704;SDS011;28342;42.594;23.414;2022-08-21T09:42:10;13.88;;;4.63;;
42704;SDS011;28342;42.594;23.414;2022-08-21T09:44:38;9.38;;;4.75;;
42704;SDS011;28342;42.594;23.414;2022-08-21T09:47:08;10.35;;;5.28;;
42704;SDS011;28342;42.594;23.414;2022-08-21T09:49:38;9.52;;;4.88;;
42704;SDS011;28342;42.594;23.414;2022-08-21T09:52:11;8.98;;;5.00;;
42704;SDS011;28342;42.594;23.414;2022-08-21T09:54:44;8.88;;;4.72;;
42704;SDS011;28342;42.594;23.414;2022-08-21T09:57:17;11.30;;;4.70;;
42704;SDS011;28342;42.594;23.414;2022-08-21T10:00:26;9.30;;;5.50;;
42704;SDS011;28342;42.594;23.414;2022-08-21T10:03:07;7.70;;;4.57;;
42704;SDS011;28342;42.594;23.414;2022-08-21T10:05:55;10.25;;;5.15;;
42704;SDS011;28342;42.594;23.414;2022-08-21T10:08:21;11.07;;;4.82;;
42704;SDS011;28342;42.594;23.414;2022-08-21T10:10:52;8.65;;;4.93;;
42704;SDS011;28342;42.594;23.414;2022-08-21T10:13:22;14.25;;;5.32;;
42704;SDS011;28342;42.594;23.414;2022-08-21T10:18:52;8.75;;;5.28;;
42704;SDS011;28342;42.594;23.414;2022-08-21T10:21:45;10.23;;;5.82;;
42704;SDS011;28342;42.594;23.414;2022-08-21T10:24:30;12.35;;;5.50;;
42704;SDS011;28342;42.594;23.414;2022-08-21T10:35:14;13.07;;;5.47;;
42704;SDS011;28342;42.594;23.414;2022-08-21T10:51:11;10.35;;;5.20;;
42704;SDS011;28342;42.594;23.414;2022-08-21T10:56:18;9.77;;;4.95;;
42704;SDS011;28342;42.594;23.414;2022-08-21T10:58:56;8.68;;;4.97;;
42704;SDS011;28342;42.594;23.414;2022-08-21T11:01:39;12.85;;;5.35;;
42704;SDS011;28342;42.594;23.414;2022-08-21T11:04:13;10.63;;;4.82;;
42704;SDS011;28342;42.594;23.414;2022-08-21T11:06:46;10.55;;;4.72;;
42704;SDS011;28342;42.594;23.414;2022-08-21T11:09:16;8.02;;;4.55;;
42704;SDS011;28342;42.594;23.414;2022-08-21T11:11:46;9.35;;;4.45;;
42704;SDS011;28342;42.594;23.414;2022-08-21T11:14:39;12.10;;;4.68;;
42704;SDS011;28342;42.594;23.414;2022-08-21T11:17:13;11.13;;;4.68;;
42704;SDS011;28342;42.594;23.414;2022-08-21T11:19:48;11.55;;;4.88;;
42704;SDS011;28342;42.594;23.414;2022-08-21T11:22:21;10.18;;;4.63;;
42704;SDS011;28342;42.594;23.414;2022-08-21T11:25:15;8.32;;;5.28;;
42704;SDS011;28342;42.594;23.414;2022-08-21T11:27:51;12.50;;;6.00;;
42704;SDS011;28342;42.594;23.414;2022-08-21T11:33:00;8.68;;;5.00;;
42704;SDS011;28342;42.594;23.414;2022-08-21T11:51:54;12.50;;;5.00;;
42704;SDS011;28342;42.594;23.414;2022-08-21T11:54:58;12.98;;;5.30;;
42704;SDS011;28342;42.594;23.414;2022-08-21T12:00:30;8.35;;;4.95;;
42704;SDS011;28342;42.594;23.414;2022-08-21T12:03:06;9.90;;;4.55;;
42704;SDS011;28342;42.594;23.414;2022-08-21T12:06:27;10.23;;;5.35;;
42704;SDS011;28342;42.594;23.414;2022-08-21T12:08:42;9.98;;;5.43;;
42704;SDS011;28342;42.594;23.414;2022-08-21T12:13:52;7.03;;;4.85;;
42704;SDS011;28342;42.594;23.414;2022-08-21T12:16:33;7.38;;;5.00;;
42704;SDS011;28342;42.594;23.414;2022-08-21T12:22:38;14.10;;;5.47;;
42704;SDS011;28342;42.594;23.414;2022-08-21T12:24:36;10.85;;;5.00;;
42704;SDS011;28342;42.594;23.414;2022-08-21T12:29:50;14.60;;;6.10;;
42704;SDS011;28342;42.594;23.414;2022-08-21T12:37:46;6.80;;;5.13;;
42704;SDS011;28342;42.594;23.414;2022-08-21T12:42:44;8.35;;;5.10;;
42704;SDS011;28342;42.594;23.414;2022-08-21T12:45:18;9.45;;;5.32;;
42704;SDS011;28342;42.594;23.414;2022-08-21T12:47:50;11.07;;;5.75;;
42704;SDS011;28342;42.594;23.414;2022-08-21T12:50:21;9.82;;;5.70;;
42704;SDS011;28342;42.594;23.414;2022-08-21T12:52:55;9.05;;;5.82;;
42704;SDS011;28342;42.594;23.414;2022-08-21T12:55:30;9.30;;;5.75;;
42704;SDS011;28342;42.594;23.414;2022-08-21T12:57:57;10.18;;;6.20;;
42704;SDS011;28342;42.594;23.414;2022-08-21T13:00:24;9.88;;;5.85;;
42704;SDS011;28342;42.594;23.414;2022-08-21T13:02:52;11.90;;;5.88;;
42704;SDS011;28342;42.594;23.414;2022-08-21T13:07:50;11.65;;;5.85;;
42704;SDS011;28342;42.594;23.414;2022-08-21T13:10:18;7.25;;;5.78;;
42704;SDS011;28342;42.594;23.414;2022-08-21T13:12:46;13.27;;;6.68;;
42704;SDS011;28342;42.594;23.414;2022-08-21T13:15:12;12.10;;;7.03;;
42704;SDS011;28342;42.594;23.414;2022-08-21T13:17:40;10.23;;;6.65;;
42704;SDS011;28342;42.594;23.414;2022-08-21T13:20:19;10.88;;;6.88;;
42704;SDS011;28342;42.594;23.414;2022-08-21T13:22:47;11.82;;;7.03;;
42704;SDS011;28342;42.594;23.414;2022-08-21T13:25:13;15.85;;;6.65;;
42704;SDS011;28342;42.594;23.414;2022-08-21T13:27:42;11.60;;;6.25;;
42704;SDS011;28342;42.594;23.414;2022-08-21T13:30:17;11.75;;;6.40;;
42704;SDS011;28342;42.594;23.414;2022-08-21T13:32:45;10.93;;;6.50;;
42704;SDS011;28342;42.594;23.414;2022-08-21T13:35:19;11.18;;;6.70;;
42704;SDS011;28342;42.594;23.414;2022-08-21T13:37:48;11.88;;;6.72;;
42704;SDS011;28342;42.594;23.414;2022-08-21T13:40:17;10.70;;;6.88;;
42704;SDS011;28342;42.594;23.414;2022-08-21T13:42:48;9.98;;;6.25;;
42704;SDS011;28342;42.594;23.414;2022-08-21T13:45:18;11.95;;;7.65;;
42704;SDS011;28342;42.594;23.414;2022-08-21T13:47:49;12.48;;;6.82;;
42704;SDS011;28342;42.594;23.414;2022-08-21T13:50:15;8.98;;;6.55;;
42704;SDS011;28342;42.594;23.414;2022-08-21T13:52:46;11.13;;;6.18;;
42704;SDS011;28342;42.594;23.414;2022-08-21T13:55:16;12.07;;;6.47;;
42704;SDS011;28342;42.594;23.414;2022-08-21T13:57:42;16.58;;;6.88;;
42704;SDS011;28342;42.594;23.414;2022-08-21T14:00:25;12.75;;;6.95;;
42704;SDS011;28342;42.594;23.414;2022-08-21T14:05:24;15.90;;;6.93;;
42704;SDS011;28342;42.594;23.414;2022-08-21T14:08:37;12.88;;;6.88;;
42704;SDS011;28342;42.594;23.414;2022-08-21T14:10:49;13.25;;;6.13;;
42704;SDS011;28342;42.594;23.414;2022-08-21T14:13:37;10.07;;;6.65;;
42704;SDS011;28342;42.594;23.414;2022-08-21T14:19:19;14.40;;;7.10;;
42704;SDS011;28342;42.594;23.414;2022-08-21T14:21:46;12.57;;;6.47;;
42704;SDS011;28342;42.594;23.414;2022-08-21T14:26:54;11.02;;;6.68;;
42704;SDS011;28342;42.594;23.414;2022-08-21T14:29:37;20.30;;;6.43;;
42704;SDS011;28342;42.594;23.414;2022-08-21T14:32:09;12.38;;;6.88;;
42704;SDS011;28342;42.594;23.414;2022-08-21T14:34:39;10.45;;;6.20;;
42704;SDS011;28342;42.594;23.414;2022-08-21T14:37:04;11.32;;;6.57;;
42704;SDS011;28342;42.594;23.414;2022-08-21T14:39:29;12.73;;;6.20;;
42704;SDS011;28342;42.594;23.414;2022-08-21T14:41:55;11.05;;;5.28;;
42704;SDS011;28342;42.594;23.414;2022-08-21T14:44:22;9.38;;;5.68;;
42704;SDS011;28342;42.594;23.414;2022-08-21T14:46:48;10.40;;;5.97;;
42704;SDS011;28342;42.594;23.414;2022-08-21T14:49:13;9.18;;;5.50;;
42704;SDS011;28342;42.594;23.414;2022-08-21T14:51:38;10.32;;;5.90;;
42704;SDS011;28342;42.594;23.414;2022-08-21T14:54:04;13.65;;;6.53;;
42704;SDS011;28342;42.594;23.414;2022-08-21T14:56:31;11.82;;;5.82;;
42704;SDS011;28342;42.594;23.414;2022-08-21T14:58:59;7.38;;;5.82;;
42704;SDS011;28342;42.594;23.414;2022-08-21T15:01:29;9.35;;;5.75;;
42704;SDS011;28342;42.594;23.414;2022-08-21T15:03:56;11.07;;;5.63;;
42704;SDS011;28342;42.594;23.414;2022-08-21T15:06:21;11.45;;;6.03;;
42704;SDS011;28342;42.594;23.414;2022-08-21T15:08:47;8.02;;;6.05;;
42704;SDS011;28342;42.594;23.414;2022-08-21T15:11:15;9.73;;;5.82;;
42704;SDS011;28342;42.594;23.414;2022-08-21T15:13:43;12.82;;;6.07;;
42704;SDS011;28342;42.594;23.414;2022-08-21T15:16:09;10.50;;;6.03;;
42704;SDS011;28342;42.594;23.414;2022-08-21T15:18:36;14.77;;;6.38;;
42704;SDS011;28342;42.594;23.414;2022-08-21T15:21:02;10.20;;;5.97;;
42704;SDS011;28342;42.594;23.414;2022-08-21T15:23:27;13.65;;;6.72;;
42704;SDS011;28342;42.594;23.414;2022-08-21T15:25:53;12.02;;;5.95;;
42704;SDS011;28342;42.594;23.414;2022-08-21T15:28:19;10.07;;;6.50;;
42704;SDS011;28342;42.594;23.414;2022-08-21T15:30:46;9.43;;;5.50;;
42704;SDS011;28342;42.594;23.414;2022-08-21T15:33:12;8.40;;;5.57;;
42704;SDS011;28342;42.594;23.414;2022-08-21T15:35:38;9.82;;;6.00;;
42704;SDS011;28342;42.594;23.414;2022-08-21T15:38:04;9.85;;;6.07;;
42704;SDS011;28342;42.594;23.414;2022-08-21T15:40:30;10.02;;;5.78;;
42704;SDS011;28342;42.594;23.414;2022-08-21T15:42:57;12.52;;;6.40;;
42704;SDS011;28342;42.594;23.414;2022-08-21T15:45:25;13.98;;;6.50;;
42704;SDS011;28342;42.594;23.414;2022-08-21T15:47:51;8.52;;;5.97;;
42704;SDS011;28342;42.594;23.414;2022-08-21T15:50:18;15.05;;;6.45;;
42704;SDS011;28342;42.594;23.414;2022-08-21T15:52:44;12.68;;;6.05;;
42704;SDS011;28342;42.594;23.414;2022-08-21T15:55:09;15.40;;;6.55;;
42704;SDS011;28342;42.594;23.414;2022-08-21T15:57:37;12.07;;;6.30;;
42704;SDS011;28342;42.594;23.414;2022-08-21T16:00:12;7.40;;;5.78;;
42704;SDS011;28342;42.594;23.414;2022-08-21T16:02:42;15.73;;;6.43;;
42704;SDS011;28342;42.594;23.414;2022-08-21T16:05:10;7.38;;;5.25;;
42704;SDS011;28342;42.594;23.414;2022-08-21T16:07:37;10.98;;;6.43;;
42704;SDS011;28342;42.594;23.414;2022-08-21T16:10:05;9.02;;;5.70;;